Date,TemperatureHighF,TemperatureAvgF,TemperatureLowF,DewpointHighF,DewpointAvgF,DewpointLowF,HumidityHigh,HumidityAvg,HumidityLow,PressureMaxIn,PressureMinIn,WindSpeedMaxMPH,WindSpeedAvgMPH,GustSpeedMaxMPH,PrecipitationSumIn
2013-1-1,20.4,8.1,-7.0,15.8,3.1,-12.3,84,79,77,30.35,29.98,14,2,14,0.00
2013-1-2,28.0,16.9,4.3,23.6,11.3,-1.4,87,78,71,30.31,29.90,17,1,17,0.00
2013-1-3,23.3,12.7,0.4,15.6,6.6,-5.1,79,76,71,30.36,30.02,17,1,17,0.00
2013-1-4,28.5,18.8,13.0,17.6,11.9,7.8,83,74,62,30.15,30.02,11,0,11,0.00
2013-1-5,15.8,9.5,1.4,10.2,4.2,-3.3,83,79,69,30.21,29.98,10,0,10,0.00
2013-1-6,17.3,13.1,5.5,12.0,7.7,0.9,81,79,72,30.25,29.83,19,2,19,0.00
2013-1-7,36.0,24.9,14.8,25.1,17.9,9.6,83,75,63,29.95,29.80,21,1,21,0.00
2013-1-8,32.9,24.7,11.6,25.6,19.0,7.4,85,79,70,29.94,29.68,17,2,17,0.00
2013-1-9,33.0,26.1,21.7,24.7,18.5,14.7,76,72,63,30.28,29.83,24,2,24,0.00
2013-1-10,42.4,35.5,27.3,31.7,27.1,20.8,92,72,55,30.07,29.57,30,5,30,0.00
2013-1-11,34.1,24.9,11.2,31.2,21.6,7.0,92,87,83,29.57,29.45,20,2,20,0.00
2013-1-12,11.1,3.7,-1.0,6.8,-1.5,-6.7,83,78,75,30.27,29.53,16,1,17,0.00
2013-1-13,8.8,2.4,-4.3,1.8,-3.8,-10.2,78,75,69,30.35,30.22,10,0,10,0.00
2013-1-14,12.5,5.2,-3.6,4.6,-0.9,-9.0,80,75,68,30.44,30.28,12,0,12,0.00
2013-1-15,27.2,13.5,0.7,23.7,7.3,-4.3,89,76,65,30.28,29.63,22,2,22,0.00
2013-1-16,35.3,12.4,-3.3,32.6,5.0,-12.3,90,72,55,30.39,29.60,21,3,21,0.00
2013-1-17,12.5,7.4,-1.3,6.2,-0.5,-12.3,79,70,58,30.51,30.20,14,0,15,0.00
2013-1-18,29.7,21.6,11.5,23.0,16.0,6.4,89,79,74,30.20,29.72,20,1,24,0.00
2013-1-19,35.2,13.1,-2.7,28.6,7.1,-9.6,86,76,68,30.43,29.70,22,3,25,0.00
2013-1-20,3.4,-2.7,-10.9,-4.0,-10.5,-18.9,75,68,62,30.50,30.42,15,2,18,0.00
2013-1-21,-3.2,-9.9,-14.5,-12.5,-17.8,-22.0,74,67,61,30.50,30.41,16,2,16,0.00
2013-1-22,7.8,-2.5,-14.2,1.6,-9.9,-20.1,75,70,62,30.47,30.27,6,0,6,0.00
2013-1-23,7.9,-3.3,-14.1,2.2,-10.6,-22.2,88,70,61,30.79,30.24,26,3,26,0.00
2013-1-24,11.9,-1.8,-14.0,5.1,-9.7,-21.9,77,68,64,30.79,30.09,26,2,26,0.00
2013-1-25,14.4,3.1,-2.9,8.0,-3.9,-8.8,77,72,68,30.42,30.02,21,3,21,0.00
2013-1-26,16.9,7.7,-3.3,9.4,0.5,-9.3,77,72,66,30.41,30.08,20,1,20,0.00
2013-1-27,32.4,22.7,9.9,26.3,15.9,4.4,87,75,68,30.09,29.82,7,0,7,0.00
2013-1-28,29.9,27.9,24.7,27.0,24.8,21.3,89,88,86,29.85,29.74,6,0,6,0.00
2013-1-29,25.0,21.4,14.9,21.4,17.1,9.0,88,83,77,30.00,29.70,18,2,18,0.00
2013-1-30,14.9,6.3,-7.0,9.2,0.5,-13.1,86,77,74,30.02,29.92,16,2,16,0.00
2013-1-31,-5.2,-9.1,-15.1,-11.5,-15.3,-21.4,86,73,70,30.44,30.02,17,2,17,0.00
2013-2-1,1.5,-9.1,-18.6,-3.5,-14.7,-24.4,85,75,72,30.42,30.15,16,0,16,0.00
2013-2-2,8.8,-0.1,-10.7,4.3,-5.1,-16.2,82,79,76,30.31,30.06,14,0,14,0.00
2013-2-3,7.9,4.6,-0.8,1.9,-0.9,-5.7,81,78,74,30.21,30.09,9,0,9,0.00
2013-2-4,17.6,7.2,-1.2,13.8,1.7,-6.9,85,78,71,30.16,29.66,8,2,22,0.00
2013-2-5,27.2,12.6,6.7,24.1,8.0,1.5,88,81,78,30.14,29.66,18,1,18,0.00
2013-2-6,27.9,23.5,12.7,23.7,19.3,8.2,85,84,82,30.15,29.91,14,1,14,0.00
2013-2-7,20.8,14.5,9.1,16.3,10.3,4.7,92,83,82,30.38,30.14,10,1,10,0.00
2013-2-8,24.5,19.2,10.3,19.4,14.8,6.0,86,83,78,30.38,30.06,28,2,28,0.00
2013-2-9,31.5,27.9,22.7,27.6,23.9,18.5,92,85,81,30.06,29.89,18,1,18,0.00
2013-2-10,30.1,28.1,24.6,26.8,25.1,21.4,89,89,87,29.89,29.53,27,5,29,0.00
2013-2-11,24.5,21.3,19.4,21.4,17.9,15.6,88,87,85,29.97,29.71,19,4,19,0.00
2013-2-12,30.7,22.2,12.6,23.8,16.3,8.1,83,78,67,29.98,29.80,7,0,13,0.00
2013-2-13,32.4,25.0,16.9,27.4,20.8,13.2,94,84,77,29.82,29.62,7,1,7,0.00
2013-2-14,18.4,12.7,7.2,14.9,7.4,1.2,86,79,74,30.34,29.81,14,2,14,0.00
2013-2-15,16.3,6.0,-0.2,7.9,0.6,-5.0,90,78,66,30.47,30.31,4,0,4,0.00
2013-2-16,15.7,8.9,-2.5,10.6,3.8,-7.5,82,79,74,30.32,30.05,18,2,18,0.00
2013-2-17,30.0,22.7,13.1,25.5,17.7,7.9,84,81,79,30.05,29.52,24,4,24,0.00
2013-2-18,29.7,10.6,-1.4,26.3,6.0,-6.7,87,81,77,30.20,29.52,24,4,24,0.00
2013-2-19,-1.5,-7.6,-12.6,-6.8,-13.2,-18.1,87,76,74,30.62,30.20,21,3,21,0.00
2013-2-20,5.8,-5.3,-16.1,-3.1,-11.9,-21.6,79,73,65,30.63,30.47,1,0,4,0.00
2013-2-21,20.2,9.3,-3.6,9.0,1.5,-9.1,79,71,57,30.51,30.24,9,0,9,0.00
2013-2-22,18.5,14.0,9.7,12.4,8.1,3.4,85,77,71,30.24,29.98,10,0,10,0.00
2013-2-23,23.5,15.4,7.3,18.1,10.8,3.1,92,82,71,30.02,29.92,7,0,7,0.00
2013-2-24,22.7,12.5,0.4,15.8,6.9,-4.3,92,78,68,30.12,30.02,14,1,14,0.00
2013-2-25,27.2,20.4,9.9,19.3,15.4,5.8,92,81,70,30.15,30.07,14,2,14,0.00
2013-2-26,25.1,19.5,13.3,21.7,16.0,9.2,87,86,84,30.14,30.06,4,0,11,0.00
2013-2-27,27.6,17.7,7.9,23.5,13.5,3.5,92,84,81,30.24,30.13,16,1,17,0.00
2013-2-28,26.2,22.5,18.2,19.2,16.7,13.2,83,78,71,30.35,30.24,16,2,16,0.00
2013-3-1,32.0,17.4,8.8,19.1,11.2,4.5,84,77,56,30.47,30.35,6,0,6,0.00
2013-3-2,24.7,15.3,2.4,16.2,8.5,-2.1,92,75,61,30.42,30.13,16,1,16,0.00
2013-3-3,31.6,24.1,13.0,22.7,15.5,7.4,81,70,58,30.13,29.87,20,2,22,0.00
2013-3-4,27.9,25.4,24.2,23.3,21.4,15.4,88,85,59,30.03,29.85,17,2,17,0.00
2013-3-5,24.2,22.4,18.7,21.1,18.6,14.5,88,85,80,30.45,30.02,21,2,21,0.00
2013-3-6,23.7,19.2,13.2,17.8,13.8,8.4,84,79,72,30.50,30.36,5,0,6,0.00
2013-3-7,30.1,20.4,11.8,21.4,14.3,7.6,85,77,66,30.38,30.20,25,2,25,0.00
2013-3-8,35.6,27.0,21.9,26.7,20.8,16.6,83,77,68,30.29,30.07,16,1,16,0.00
2013-3-9,29.4,27.8,25.4,26.4,23.8,19.9,89,85,77,30.07,29.82,24,3,24,0.00
2013-3-10,25.3,19.2,8.6,19.9,13.2,2.6,81,77,71,30.24,30.04,23,3,23,0.00
2013-3-11,28.7,15.2,4.0,15.9,7.6,-1.2,83,72,55,30.16,29.89,4,0,4,0.00
2013-3-12,25.4,19.0,11.7,18.1,13.6,5.8,85,79,73,30.38,29.93,17,1,17,0.00
2013-3-13,23.5,13.3,-0.3,18.3,6.5,-5.3,81,74,62,30.45,30.14,14,1,16,0.00
2013-3-14,39.6,28.8,21.1,28.4,22.2,16.7,85,76,62,30.16,30.07,16,1,16,0.00
2013-3-15,22.7,19.1,10.9,17.5,14.6,5.5,92,82,77,30.15,29.96,21,5,21,0.00
2013-3-16,10.6,3.6,-4.2,5.5,-2.6,-9.3,80,75,66,30.41,30.15,14,1,14,0.00
2013-3-17,23.5,8.9,-5.5,20.1,2.9,-11.3,87,76,69,30.40,29.67,23,2,23,0.00
2013-3-18,30.5,17.0,5.5,27.6,12.8,-0.2,89,83,77,30.04,29.48,30,6,30,0.00
2013-3-19,15.9,6.8,-2.2,6.8,-0.3,-8.1,86,72,63,30.42,30.04,15,1,15,0.00
2013-3-20,17.0,7.6,-1.6,6.6,-0.0,-7.7,83,71,59,30.44,30.27,15,1,15,0.00
2013-3-21,17.6,7.4,-4.0,9.0,0.7,-9.1,82,74,64,30.27,30.17,5,0,5,0.00
2013-3-22,22.0,9.9,-1.5,12.7,3.8,-6.4,81,76,65,30.23,30.15,5,0,5,0.00
2013-3-23,27.9,18.4,8.3,19.4,11.7,3.1,81,75,68,30.27,30.21,7,0,7,0.00
2013-3-24,29.9,22.2,15.7,22.9,16.8,11.3,84,80,70,30.26,30.19,15,2,15,0.00
2013-3-25,28.2,23.2,17.5,20.6,17.2,11.7,82,77,70,30.40,30.26,16,2,16,0.00
2013-3-26,27.9,17.1,7.4,17.5,10.4,2.8,89,75,62,30.42,30.35,10,0,10,0.00
2013-3-27,37.2,22.6,7.7,25.1,14.8,3.3,84,73,54,30.39,30.32,14,0,14,0.00
2013-3-28,41.1,33.0,25.2,29.7,24.6,17.8,84,71,62,30.33,30.25,18,2,18,0.00
2013-3-29,42.4,29.2,14.8,33.2,24.7,11.1,88,83,69,30.27,30.01,10,0,10,0.00
2013-3-30,42.6,35.3,30.0,33.6,30.1,27.0,96,82,69,30.02,29.91,11,1,11,0.00
2013-3-31,34.7,26.8,17.6,29.8,19.3,10.8,84,73,60,30.27,29.88,20,2,20,0.00
2013-4-1,31.7,21.6,12.6,19.0,12.9,6.7,78,69,56,30.40,30.27,13,0,13,0.00
2013-4-2,32.4,23.2,13.1,18.5,14.4,8.6,92,70,51,30.42,30.32,10,0,10,0.00
2013-4-3,42.6,31.4,19.7,34.3,23.5,13.2,82,72,65,30.39,29.93,29,3,29,0.00
2013-4-4,35.5,30.6,22.3,27.4,22.8,15.9,78,72,64,30.31,30.04,22,2,22,0.00
2013-4-5,34.4,27.5,18.0,28.0,20.5,13.0,82,75,61,30.31,29.81,16,1,20,0.00
2013-4-6,38.4,34.5,32.3,33.3,29.8,27.0,89,83,77,29.87,29.67,11,2,12,0.00
2013-4-7,40.4,34.1,31.8,31.2,29.0,27.2,89,82,66,29.92,29.80,14,1,14,0.00
2013-4-8,34.2,29.0,19.4,31.2,24.2,10.5,90,82,68,30.31,29.80,27,7,28,0.00
2013-4-9,27.7,20.5,14.5,17.6,12.2,5.5,76,70,63,30.42,30.30,27,6,27,0.00
2013-4-10,34.4,28.1,21.0,26.2,20.2,14.4,78,72,63,30.41,30.06,17,3,17,0.00
2013-4-11,35.0,30.9,28.0,26.9,24.8,18.8,89,79,54,30.06,29.86,17,2,18,0.00
2013-4-12,32.7,29.1,27.0,26.8,24.8,22.3,92,84,77,29.94,29.86,15,3,16,0.00
2013-4-13,34.7,29.6,25.8,25.1,23.0,20.9,88,77,59,29.95,29.90,10,1,10,0.00
2013-4-14,34.4,31.2,27.1,29.7,24.6,19.1,91,77,58,29.94,29.48,20,2,20,0.00
2013-4-15,35.8,32.6,31.1,33.4,29.8,27.2,91,90,83,30.02,29.40,19,1,19,0.00
2013-4-16,38.2,31.4,24.6,30.0,25.9,20.3,86,80,70,30.40,30.02,13,1,17,0.00
2013-4-17,34.4,31.9,28.7,31.2,28.5,25.6,90,87,82,30.42,30.14,13,2,13,0.00
2013-4-18,36.7,32.0,29.4,30.7,26.9,22.4,90,82,69,30.15,29.86,21,3,21,0.00
2013-4-19,35.1,29.8,25.4,25.5,21.5,17.9,77,71,58,30.12,29.82,23,2,23,0.00
2013-4-20,38.8,29.8,18.0,23.6,18.0,12.2,83,63,37,30.26,30.11,16,1,16,0.00
2013-4-21,42.2,35.2,29.7,37.6,29.3,23.3,89,79,70,30.21,29.99,27,3,27,0.00
2013-4-22,34.4,30.9,28.0,25.5,23.7,21.0,82,74,65,30.38,30.21,17,2,17,0.00
2013-4-23,43.9,32.5,21.5,26.4,22.1,16.3,82,66,47,30.36,30.04,14,1,14,0.00
2013-4-24,47.7,34.4,26.3,34.4,27.3,22.3,86,76,51,30.07,29.90,23,2,23,0.00
2013-4-25,47.2,37.1,26.2,35.7,27.3,21.1,84,68,49,30.16,29.93,22,2,22,0.00
2013-4-26,68.4,50.7,32.9,44.1,37.0,28.6,85,62,32,30.07,29.88,12,1,16,0.00
2013-4-27,72.8,58.2,42.4,52.4,42.4,32.8,71,57,44,30.05,29.70,25,4,25,0.00
2013-4-28,61.5,53.4,42.1,46.1,40.1,28.3,74,61,39,29.86,29.58,19,1,19,0.00
2013-4-29,66.6,51.4,31.5,45.8,35.6,25.8,80,57,38,29.88,29.38,20,2,20,0.00
2013-4-30,61.7,52.0,36.5,47.9,37.7,25.1,85,60,39,30.08,29.28,25,4,25,0.00
2013-5-1,42.8,36.1,29.9,27.4,23.8,20.3,70,61,52,30.62,30.06,20,2,20,0.00
2013-5-2,39.1,32.6,25.9,25.8,23.8,21.5,85,70,57,30.74,30.57,19,2,19,0.00
2013-5-3,51.4,38.1,23.1,28.3,24.3,19.1,92,60,39,30.58,30.26,20,2,20,0.00
2013-5-4,50.2,43.2,38.8,39.3,31.3,23.7,85,63,47,30.29,30.22,18,4,18,0.00
2013-5-5,50.3,44.1,38.5,41.3,37.9,35.2,88,79,70,30.26,30.13,11,1,11,0.00
2013-5-6,70.8,56.3,46.2,49.2,44.4,40.3,81,66,45,30.14,29.99,8,0,8,0.00
2013-5-7,78.5,63.7,46.8,48.9,45.5,42.8,87,56,30,30.01,29.83,24,3,24,0.00
2013-5-8,75.0,60.9,50.8,51.5,45.1,36.3,74,57,39,30.04,29.88,20,2,20,0.00
2013-5-9,66.1,54.0,39.5,36.5,32.3,28.1,69,46,26,30.15,30.04,26,5,26,0.00
2013-5-10,72.1,53.7,42.7,41.6,34.2,22.6,80,50,29,30.16,29.84,29,4,29,0.00
2013-5-11,52.7,43.8,35.1,29.3,23.2,16.1,71,46,27,30.30,30.11,25,3,25,0.00
2013-5-12,66.7,48.7,28.5,25.0,21.0,16.1,64,37,18,30.29,30.00,13,0,13,0.00
2013-5-13,92.8,67.3,49.6,49.5,35.0,23.8,38,31,17,30.00,29.53,29,4,29,0.00
2013-5-14,89.8,70.6,56.8,57.5,45.1,36.9,76,42,21,29.74,29.41,31,4,32,0.00
2013-5-15,86.5,68.6,50.8,46.9,40.8,36.4,67,41,18,29.82,29.71,18,1,20,0.00
2013-5-16,79.8,63.4,51.3,50.8,43.2,38.1,71,50,26,29.89,29.80,23,2,23,0.00
2013-5-17,75.0,66.1,55.5,55.3,47.4,36.0,71,52,35,29.89,29.81,14,1,14,0.00
2013-5-18,87.1,69.9,58.1,64.8,58.3,52.3,89,69,41,29.82,29.67,13,1,13,0.00
2013-5-19,78.1,67.0,57.9,66.5,59.4,54.1,90,78,55,29.68,29.50,24,2,24,0.02
2013-5-20,65.0,59.0,56.1,59.5,55.2,52.8,89,87,81,29.53,29.40,9,0,9,0.00
2013-5-21,56.6,50.7,48.1,52.1,46.3,43.4,89,85,77,29.84,29.51,10,3,23,0.00
2013-5-22,71.5,58.4,47.4,49.2,43.5,33.5,84,61,26,30.06,29.84,25,3,25,0.00
2013-5-23,70.8,59.5,48.3,44.7,36.5,29.8,68,45,25,30.29,30.06,13,1,13,0.00
2013-5-24,66.2,55.4,44.3,47.7,40.3,32.1,78,58,35,30.26,30.09,26,1,26,0.01
2013-5-25,71.3,60.9,53.8,54.2,49.9,47.5,82,67,53,30.14,30.04,24,2,24,0.00
2013-5-26,61.9,57.3,53.6,48.1,45.9,43.5,75,66,53,30.13,29.97,20,1,20,0.00
2013-5-27,71.0,61.2,54.2,56.0,50.8,45.3,79,69,57,29.99,29.75,15,0,15,0.00
2013-5-28,75.0,63.5,57.3,57.7,54.4,51.4,88,73,53,29.77,29.58,16,1,16,0.00
2013-5-29,71.7,62.8,55.8,61.0,56.9,51.8,90,81,65,29.67,29.53,16,0,16,0.01
2013-5-30,81.8,67.8,60.8,64.9,60.5,57.5,92,79,48,29.56,29.34,23,1,23,0.00
2013-5-31,64.4,61.4,58.7,59.4,55.4,51.3,88,81,69,29.53,29.28,17,0,17,0.00
2013-6-1,60.7,52.2,46.8,55.6,45.9,41.5,92,79,67,30.06,29.53,21,2,26,0.00
2013-6-2,67.7,54.7,41.8,44.8,41.3,36.8,88,63,38,30.13,30.00,10,0,10,0.00
2013-6-3,67.0,56.8,44.3,45.8,41.4,37.6,78,57,37,30.03,29.91,13,0,13,0.00
2013-6-4,60.2,57.2,53.4,54.4,50.1,45.1,89,77,64,29.96,29.87,14,0,14,0.00
2013-6-5,63.0,56.8,54.8,52.7,50.7,48.9,88,80,65,30.04,29.90,17,0,17,0.00
2013-6-6,70.3,60.4,52.9,49.8,47.5,42.8,83,64,43,30.06,29.98,15,0,15,0.00
2013-6-7,75.2,63.7,52.1,52.4,49.1,46.8,82,61,39,30.01,29.81,16,2,16,0.00
2013-6-8,76.2,65.1,53.9,53.3,50.9,47.7,83,62,43,29.84,29.76,14,1,20,0.00
2013-6-9,67.3,61.0,55.3,57.6,53.8,50.6,89,78,63,29.83,29.80,9,0,9,0.00
2013-6-10,76.6,63.8,50.9,60.9,55.2,47.8,91,75,53,29.82,29.72,14,1,14,0.00
2013-6-11,81.6,70.2,56.9,60.0,50.6,44.5,82,54,28,29.90,29.76,2,0,10,0.00
2013-6-12,76.2,67.5,58.7,57.3,52.6,47.8,72,59,44,30.02,29.80,9,0,9,0.00
2013-6-13,82.3,68.6,53.0,55.4,51.2,47.1,82,56,35,30.10,29.95,11,0,11,0.00
2013-6-14,85.2,73.6,64.0,62.3,57.4,52.3,69,57,43,29.98,29.67,26,2,28,0.00
2013-6-15,87.5,73.6,59.0,61.4,50.5,43.3,75,48,23,29.88,29.73,18,0,18,0.00
2013-6-16,89.8,74.1,57.4,53.5,48.8,44.8,68,44,23,29.84,29.75,21,1,21,0.00
2013-6-17,79.6,69.5,60.8,57.4,53.9,49.1,71,58,43,29.99,29.83,13,0,14,0.00
2013-6-18,83.5,70.9,59.2,55.7,52.3,48.6,78,54,32,30.07,29.90,12,0,12,0.00
2013-6-19,89.8,77.7,62.3,60.1,55.9,51.3,72,49,31,29.92,29.78,13,1,13,0.00
2013-6-20,85.0,73.6,62.8,68.8,62.5,57.0,88,69,51,29.89,29.73,31,1,33,0.02
2013-6-21,81.0,70.6,61.7,66.9,62.1,57.8,89,76,55,29.97,29.69,15,0,15,0.00
2013-6-22,85.2,74.3,66.3,67.1,63.9,62.1,89,71,47,29.86,29.71,10,1,15,0.00
2013-6-23,81.5,71.6,63.8,65.2,60.9,55.1,90,71,43,29.77,29.56,20,1,20,0.00
2013-6-24,86.8,74.9,62.1,65.8,60.1,53.5,78,61,35,29.78,29.68,17,1,17,0.00
2013-6-25,90.5,76.3,65.9,73.2,67.3,61.6,89,74,55,29.70,29.52,29,1,29,0.00
2013-6-26,89.2,74.9,63.5,68.7,63.8,60.3,90,71,40,29.73,29.51,19,0,19,0.00
2013-6-27,88.0,77.0,68.4,63.2,58.9,53.6,76,55,33,29.81,29.73,16,1,20,0.00
2013-6-28,82.2,73.3,65.2,61.3,57.7,55.1,73,58,46,29.87,29.81,17,1,17,0.00
2013-6-29,82.0,71.6,62.0,62.1,58.3,54.9,85,65,41,29.98,29.86,15,1,16,0.00
2013-6-30,84.0,74.1,60.6,58.9,54.9,50.1,82,54,33,30.11,29.98,12,0,12,0.00
2013-7-1,87.2,75.2,61.5,60.9,54.5,48.4,79,52,30,30.18,30.09,16,0,16,0.00
2013-7-2,88.7,77.5,64.8,60.0,55.1,49.6,73,48,29,30.10,29.97,10,0,10,0.00
2013-7-3,90.5,77.6,65.1,61.9,57.2,54.6,76,51,32,29.97,29.80,13,1,14,0.00
2013-7-4,92.5,79.5,64.8,64.1,58.3,52.2,66,50,33,29.80,29.62,19,2,19,0.00
2013-7-5,93.3,81.2,68.7,68.0,64.1,60.6,82,58,37,29.68,29.63,11,0,11,0.00
2013-7-6,85.0,76.7,69.4,69.6,66.0,63.1,88,70,54,29.74,29.67,16,0,16,0.00
2013-7-7,84.8,76.6,68.2,68.8,62.9,56.1,88,65,40,29.89,29.73,7,0,10,0.00
2013-7-8,90.8,77.1,61.3,64.7,60.2,54.9,83,58,37,29.94,29.82,14,1,15,0.00
2013-7-9,78.0,72.3,62.2,67.8,62.0,53.1,88,70,56,29.99,29.68,14,0,14,0.00
2013-7-10,84.3,71.3,57.0,57.5,53.6,50.1,82,57,34,30.05,29.95,12,0,12,0.00
2013-7-11,88.6,76.7,63.6,66.7,60.3,54.1,72,58,44,29.98,29.73,23,3,23,0.00
2013-7-12,93.2,81.1,72.4,71.8,66.8,61.8,78,62,49,29.78,29.64,24,3,24,0.00
2013-7-13,90.6,78.2,68.7,73.7,69.0,65.5,90,74,52,29.91,29.78,13,0,13,0.00
2013-7-14,76.3,73.0,68.6,67.7,65.5,61.3,82,77,68,30.12,29.90,16,0,16,0.00
2013-7-15,74.8,71.1,67.3,70.0,66.4,63.2,88,85,77,30.12,29.99,14,1,15,0.13
2013-7-16,94.0,81.5,70.0,70.1,67.3,64.4,83,64,43,30.06,29.98,21,3,21,0.01
2013-7-17,94.6,79.9,65.7,72.9,67.2,60.8,84,67,44,30.12,29.95,10,1,18,0.00
2013-7-18,96.2,84.4,74.0,75.0,69.9,66.7,82,63,47,29.95,29.60,13,1,18,0.00
2013-7-19,88.1,73.8,65.0,66.6,60.5,57.8,86,65,38,29.85,29.65,13,1,13,0.04
2013-7-20,72.8,65.0,57.5,59.7,53.4,49.0,86,67,49,29.98,29.84,11,0,12,0.00
2013-7-21,84.0,70.9,55.3,66.5,58.1,48.3,81,65,50,29.93,29.58,16,1,16,0.00
2013-7-22,74.5,69.4,59.0,65.6,58.1,50.9,80,67,53,29.90,29.58,14,0,14,0.00
2013-7-23,76.5,64.7,52.2,55.4,51.9,47.5,85,65,44,30.02,29.90,9,0,10,0.00
2013-7-24,87.3,72.1,56.2,61.6,55.6,51.0,84,58,35,30.03,29.83,14,1,14,0.00
2013-7-25,84.8,71.0,59.9,61.6,55.4,49.6,82,60,37,29.93,29.84,22,1,22,0.00
2013-7-26,70.5,62.2,55.9,52.7,48.5,42.9,86,62,41,30.15,29.93,19,1,19,0.00
2013-7-27,71.8,61.2,48.2,48.1,45.1,41.2,80,58,39,30.16,29.99,17,1,17,0.00
2013-7-28,77.8,64.2,48.8,49.5,46.6,43.8,84,56,35,30.04,29.97,10,0,10,0.00
2013-7-29,77.8,66.6,54.0,56.7,51.9,46.6,82,60,41,30.01,29.96,18,2,18,0.10
2013-7-30,80.9,69.6,60.6,63.5,58.7,55.4,85,69,49,30.02,29.97,11,0,11,0.00
2013-7-31,78.3,68.8,59.0,57.7,52.5,47.5,84,59,35,30.04,29.97,16,1,20,0.00
2013-8-1,82.5,69.7,56.5,54.9,51.5,48.3,75,54,37,29.98,29.84,10,0,13,0.00
2013-8-2,77.3,66.0,54.5,55.5,50.4,47.4,81,59,37,30.05,29.86,13,0,13,0.00
2013-8-3,76.5,66.2,57.6,52.1,49.3,45.5,76,56,35,30.21,30.05,13,0,13,0.00
2013-8-4,78.2,66.4,56.0,56.1,51.3,46.2,72,59,45,30.21,29.86,16,1,16,0.00
2013-8-5,75.2,66.4,61.4,58.0,56.1,53.6,85,70,52,29.87,29.77,11,0,11,0.00
2013-8-6,80.8,64.8,55.8,64.1,57.5,50.4,89,78,53,29.86,29.67,10,0,10,0.33
2013-8-7,77.5,63.9,51.2,53.2,50.0,45.9,84,63,40,30.00,29.85,7,0,10,0.00
2013-8-8,77.5,66.9,57.5,54.3,52.7,49.6,83,62,41,30.01,29.94,10,0,10,0.00
2013-8-9,71.2,62.3,50.9,52.8,49.8,43.9,78,64,50,30.12,29.99,14,0,14,0.00
2013-8-10,76.5,64.5,51.2,55.4,52.2,46.8,87,66,46,30.18,30.02,11,0,11,0.00
2013-8-11,78.0,67.0,60.2,58.4,54.7,51.8,83,66,44,30.07,29.99,11,0,11,0.00
2013-8-12,81.1,67.2,53.2,57.5,51.8,45.6,84,60,39,30.11,30.02,13,0,16,0.00
2013-8-13,79.0,63.7,47.8,51.1,45.9,41.0,77,55,32,30.20,30.10,9,0,9,0.00
2013-8-14,79.8,66.5,51.2,51.1,47.4,44.3,79,53,31,30.15,30.02,10,0,11,0.00
2013-8-15,83.6,70.7,61.6,61.4,56.2,48.3,76,61,41,30.05,30.00,11,0,11,0.00
2013-8-16,82.2,71.5,60.4,60.5,56.3,53.5,83,61,39,30.08,30.02,18,2,18,0.00
2013-8-17,84.5,72.2,59.5,66.0,60.7,54.7,85,68,53,30.04,29.88,19,2,19,0.00
2013-8-18,85.7,75.0,64.3,68.9,63.8,58.1,80,69,55,29.93,29.78,22,3,22,0.00
2013-8-19,92.2,79.8,68.0,72.1,67.9,63.1,85,68,47,29.84,29.72,12,1,12,0.00
2013-8-20,96.9,82.9,70.6,75.7,69.9,65.7,85,67,41,29.73,29.63,19,3,19,0.00
2013-8-21,83.8,74.6,61.9,70.8,56.3,49.8,78,55,33,30.02,29.66,17,1,17,0.00
2013-8-22,80.5,70.4,59.8,53.2,48.1,44.2,68,47,30,30.15,30.01,12,0,12,0.00
2013-8-23,88.6,73.7,58.4,67.8,57.7,47.5,72,58,39,30.08,29.83,17,2,20,0.00
2013-8-24,95.2,83.4,73.2,73.1,70.0,67.0,81,65,46,29.84,29.64,23,4,23,0.00
2013-8-25,97.8,85.5,73.5,74.7,70.6,61.3,80,62,45,29.84,29.70,18,0,18,0.00
2013-8-26,94.7,82.4,74.2,75.1,71.4,64.9,86,70,49,29.84,29.74,17,0,17,0.00
2013-8-27,92.8,80.1,66.5,70.2,65.1,60.9,84,62,39,29.86,29.74,9,0,9,0.00
2013-8-28,93.0,82.2,74.9,73.3,68.7,66.2,76,64,46,29.91,29.84,12,0,12,0.00
2013-8-29,90.8,79.8,72.3,75.2,70.1,65.5,89,73,55,29.88,29.73,16,1,16,0.27
2013-8-30,89.7,75.5,66.0,66.3,63.6,60.6,89,69,40,29.95,29.78,11,0,13,0.00
2013-8-31,89.7,77.2,65.3,69.9,63.3,55.1,82,63,42,29.80,29.62,15,1,15,0.00
2013-9-1,70.5,62.8,56.6,56.9,52.4,47.1,82,69,52,30.03,29.77,13,0,13,0.00
2013-9-2,77.0,60.5,46.8,51.4,47.3,42.8,87,65,36,30.12,29.97,5,0,5,0.00
2013-9-3,87.3,69.7,54.5,60.8,54.4,47.0,79,60,39,29.98,29.89,12,1,12,0.00
2013-9-4,79.5,67.2,55.3,60.6,49.7,44.2,75,56,30,30.13,29.96,11,1,11,0.00
2013-9-5,89.8,74.0,58.3,66.0,57.4,47.2,70,57,43,30.14,29.92,16,1,16,0.00
2013-9-6,91.7,79.1,67.9,70.3,66.3,62.3,82,66,47,29.92,29.77,11,0,11,0.00
2013-9-7,86.7,75.3,66.5,67.6,62.0,55.8,83,64,44,29.99,29.81,16,1,16,0.00
2013-9-8,71.1,66.3,60.1,62.0,58.8,55.2,87,77,63,30.01,29.79,18,0,21,0.37
2013-9-9,75.3,68.3,64.4,68.2,63.8,60.4,89,86,77,29.79,29.56,27,0,27,0.47
2013-9-10,78.7,68.2,61.4,62.5,59.7,57.7,90,76,52,29.89,29.75,12,0,12,0.07
2013-9-11,83.2,68.2,57.7,61.0,53.3,46.8,86,62,31,30.12,29.88,9,1,18,0.00
2013-9-12,72.2,60.5,50.5,54.0,49.2,45.5,84,67,47,30.27,30.12,13,0,13,0.00
2013-9-13,77.7,63.3,51.3,53.7,49.3,45.8,84,63,39,30.21,29.92,17,2,17,0.00
2013-9-14,61.3,58.2,55.2,56.5,52.2,47.5,89,81,64,29.93,29.78,16,1,16,1.41
2013-9-15,64.2,55.9,48.4,54.8,47.6,41.8,89,75,49,30.30,29.93,13,0,13,0.00
2013-9-16,70.3,56.8,45.2,51.7,45.1,40.9,87,67,42,30.33,30.08,20,2,20,0.00
2013-9-17,66.2,59.0,52.9,56.4,51.4,44.7,82,76,69,30.09,29.78,22,3,22,0.00
2013-9-18,81.4,68.2,59.7,69.5,61.8,54.9,88,80,66,29.78,29.48,19,1,19,0.00
2013-9-19,75.9,66.1,56.8,62.9,56.6,50.3,89,73,45,29.82,29.54,19,1,19,0.01
2013-9-20,60.9,54.2,46.8,51.5,46.3,40.1,87,75,50,29.97,29.82,12,0,12,0.08
2013-9-21,65.0,53.2,42.0,46.4,43.0,38.4,88,69,47,30.02,29.84,6,0,6,0.00
2013-9-22,80.8,64.7,50.4,58.0,50.9,43.6,79,62,44,29.85,29.56,25,2,26,0.00
2013-9-23,80.3,69.6,61.6,55.1,52.4,50.6,68,55,40,29.75,29.58,32,4,32,0.00
2013-9-24,76.7,65.2,57.7,56.6,52.8,49.3,83,65,40,29.89,29.75,13,0,13,0.00
2013-9-25,78.7,64.4,53.6,58.1,52.6,49.0,85,67,44,29.86,29.68,8,1,26,0.00
2013-9-26,82.5,70.0,62.5,60.9,56.3,51.5,72,62,46,29.73,29.60,27,3,27,0.00
2013-9-27,65.3,56.0,52.3,55.4,48.8,46.4,87,77,69,29.77,29.66,13,0,13,0.03
2013-9-28,60.4,53.3,49.9,49.5,47.1,41.5,92,80,59,29.80,29.60,14,0,14,1.07
2013-9-29,78.5,60.5,46.0,51.2,44.9,38.8,78,59,30,29.81,29.49,12,1,22,0.00
2013-9-30,78.9,65.3,52.2,53.9,49.5,45.5,79,58,32,29.53,29.43,9,0,10,0.00
2013-10-1,72.5,61.0,49.7,53.6,41.3,34.3,73,51,26,29.91,29.45,16,1,19,0.00
2013-10-2,63.5,53.8,45.1,47.3,42.3,36.7,84,65,48,29.97,29.90,15,0,15,0.00
2013-10-3,55.8,50.5,44.6,47.2,43.6,40.1,89,77,69,30.07,29.93,13,1,13,0.00
2013-10-4,51.4,46.4,43.2,43.2,40.7,37.5,88,81,70,30.15,29.92,24,3,25,0.13
2013-10-5,54.4,48.8,46.0,47.8,44.6,42.8,92,86,77,29.93,29.79,24,1,24,0.61
2013-10-6,62.6,50.2,41.4,44.1,40.9,37.2,89,72,45,29.91,29.80,15,0,15,0.34
2013-10-7,68.2,53.1,38.2,45.1,39.7,34.4,87,63,36,29.96,29.77,13,0,13,0.00
2013-10-8,77.7,61.3,51.7,52.1,46.7,40.3,80,60,39,29.78,29.56,16,2,16,0.00
2013-10-9,70.6,56.8,43.2,46.9,43.5,37.9,86,64,36,29.95,29.72,3,0,10,0.00
2013-10-10,74.2,63.4,53.1,56.5,50.9,44.1,78,64,51,29.92,29.64,21,1,21,0.00
2013-10-11,69.2,62.3,52.9,57.0,52.3,45.3,85,70,55,29.66,29.29,31,3,31,0.49
2013-10-12,55.3,49.1,39.8,45.7,40.9,32.3,88,74,51,30.18,29.40,20,2,20,0.17
2013-10-13,62.9,47.6,34.7,41.4,35.3,30.3,89,65,38,30.39,30.17,10,0,10,0.01
2013-10-14,50.5,46.9,43.4,42.4,39.8,37.2,89,77,62,30.35,30.00,22,1,22,0.81
2013-10-15,44.6,43.2,36.2,40.4,38.4,30.5,87,83,74,30.05,29.92,23,2,23,0.69
2013-10-16,62.4,43.8,30.7,41.7,33.7,27.1,92,70,41,30.04,29.82,13,0,13,0.00
2013-10-17,47.7,43.9,35.9,41.1,35.0,27.8,81,71,56,29.97,29.80,16,0,16,0.01
2013-10-18,53.2,39.6,30.1,36.5,30.9,25.0,82,72,45,29.98,29.77,13,0,13,0.01
2013-10-19,43.5,38.1,32.5,34.7,31.5,27.9,87,77,61,29.79,29.70,12,0,12,0.05
2013-10-20,39.4,36.3,33.4,34.8,30.3,22.8,88,79,63,29.99,29.62,16,1,16,0.27
2013-10-21,41.2,34.8,30.7,27.8,24.1,21.0,76,65,56,30.01,29.97,14,0,14,0.00
2013-10-22,40.2,35.5,30.9,29.2,26.0,23.8,78,68,53,30.10,30.00,7,0,7,0.00
2013-10-23,39.9,35.1,31.2,29.8,25.0,21.6,82,67,51,30.19,30.05,12,0,12,0.00
2013-10-24,42.5,36.9,30.0,31.4,29.1,25.2,89,74,58,30.32,30.19,11,0,11,0.00
2013-10-25,60.7,42.1,28.5,42.4,30.6,22.4,80,65,45,30.30,29.77,19,2,23,0.00
2013-10-26,43.4,37.8,32.1,29.9,26.9,24.0,73,65,52,30.18,29.93,16,0,16,0.00
2013-10-27,47.1,38.8,32.8,32.0,28.0,24.8,77,65,49,30.31,29.77,23,2,23,0.00
2013-10-28,36.2,28.9,22.0,24.7,18.7,15.9,78,66,45,30.58,30.31,16,1,16,0.00
2013-10-29,35.9,30.7,24.0,29.5,22.9,16.5,78,72,68,30.50,30.14,5,0,5,0.00
2013-10-30,38.7,36.8,34.4,35.9,32.8,29.4,92,86,78,30.14,29.72,6,0,6,0.00
2013-10-31,45.0,40.1,37.0,37.8,34.8,32.5,88,82,71,29.72,29.44,6,0,6,0.01
2013-11-1,48.7,38.9,29.9,37.0,31.9,25.8,86,76,61,29.94,29.49,12,0,12,0.00
2013-11-2,53.9,40.8,29.1,37.4,31.6,25.1,86,71,46,30.06,29.93,11,0,11,0.00
2013-11-3,54.5,47.1,37.9,35.7,33.6,31.1,80,60,46,29.97,29.63,22,3,33,0.00
2013-11-4,48.2,39.7,28.7,35.2,28.5,20.3,78,64,46,30.11,29.63,19,1,19,0.00
2013-11-5,39.4,31.3,25.1,23.9,20.4,16.7,73,64,53,30.25,30.11,10,0,10,0.00
2013-11-6,41.1,29.6,20.3,29.3,21.4,14.5,79,71,61,30.19,30.09,6,0,6,0.00
2013-11-7,41.9,30.1,20.2,26.3,21.1,14.2,78,69,52,30.27,30.14,7,0,7,0.00
2013-11-8,44.0,35.5,25.3,33.3,27.4,19.7,86,73,45,30.14,29.59,27,1,27,0.18
2013-11-9,39.9,37.5,33.3,34.2,28.7,24.6,86,70,59,30.31,29.64,27,4,27,0.00
2013-11-10,38.4,28.5,17.5,28.5,20.8,8.9,81,73,58,30.41,30.14,25,3,25,0.00
2013-11-11,17.7,14.3,9.2,10.5,5.7,2.6,76,68,59,30.84,30.41,13,2,19,0.00
2013-11-12,36.9,22.8,8.9,17.5,9.9,2.3,77,59,36,30.84,30.26,19,2,19,0.00
2013-11-13,59.6,38.0,23.1,38.2,26.9,15.7,80,65,42,30.26,29.83,16,1,16,0.00
2013-11-14,45.9,38.1,29.1,36.9,31.0,24.6,85,76,67,29.84,29.75,5,0,10,0.00
2013-11-15,50.8,37.4,24.7,38.6,30.7,20.8,92,77,58,29.80,29.41,18,2,18,0.03
2013-11-16,45.1,39.4,34.4,37.9,34.3,29.8,92,82,74,29.41,29.26,14,1,14,0.05
2013-11-17,38.1,32.3,26.0,34.5,27.1,18.4,88,81,72,29.98,29.33,20,2,20,0.01
2013-11-18,34.2,26.9,24.5,20.9,18.7,17.0,75,71,58,30.22,29.97,16,1,16,0.00
2013-11-19,47.5,37.0,24.7,34.8,27.5,18.4,77,68,58,30.17,29.59,27,3,27,0.00
2013-11-20,43.8,30.0,18.8,34.0,23.0,12.2,82,75,68,30.23,29.62,24,3,24,0.00
2013-11-21,18.8,13.2,6.7,12.5,6.3,-0.2,79,73,68,30.70,30.23,12,2,19,0.00
2013-11-22,20.0,10.4,1.1,14.5,3.7,-4.7,80,74,67,30.91,30.54,19,1,19,0.00
2013-11-23,12.5,3.9,-4.9,3.7,-2.9,-10.6,76,73,65,31.03,30.68,9,0,9,0.00
2013-11-24,40.7,25.3,7.6,28.6,15.2,1.0,74,66,51,30.68,29.84,28,3,28,0.00
2013-11-25,35.7,29.9,21.5,26.6,22.1,10.2,78,72,60,30.24,29.85,25,2,25,0.00
2013-11-26,21.5,15.6,7.9,11.9,7.4,2.5,79,70,61,30.52,30.24,18,2,18,0.00
2013-11-27,24.5,16.0,5.7,11.5,7.0,0.6,80,68,53,30.49,30.03,22,1,22,0.00
2013-11-28,22.3,17.4,12.0,14.6,9.2,6.2,77,70,59,30.52,30.17,16,1,16,0.00
2013-11-29,34.4,23.7,11.7,19.9,14.0,5.9,77,67,53,30.52,30.03,25,2,25,0.00
2013-11-30,26.7,23.9,21.1,19.9,18.0,16.0,83,78,72,30.28,30.04,10,0,10,0.00
2013-12-1,28.3,22.4,19.2,23.3,17.7,15.4,85,82,76,30.28,29.85,7,0,7,0.00
2013-12-2,30.6,28.9,26.4,27.2,24.9,22.1,87,85,80,29.85,29.61,13,1,13,0.03
2013-12-3,26.4,22.6,19.9,22.1,18.0,15.4,89,83,79,29.92,29.71,22,5,22,0.00
2013-12-4,27.2,17.7,7.0,23.8,13.7,2.4,87,84,81,29.88,29.72,18,3,18,0.00
2013-12-5,7.1,0.1,-4.6,2.7,-5.0,-10.0,90,78,77,30.44,29.87,21,4,21,0.00
2013-12-6,-3.8,-7.7,-13.7,-9.4,-13.3,-19.4,78,76,74,30.76,30.43,13,1,13,0.00
2013-12-7,-6.0,-12.0,-16.9,-12.9,-18.0,-22.6,76,74,70,30.78,30.61,12,0,12,0.00
2013-12-8,5.1,-2.6,-14.4,2.4,-7.8,-19.7,89,78,75,30.62,30.13,13,0,13,0.00
2013-12-9,2.8,-3.9,-10.7,-2.2,-9.3,-16.1,79,77,75,30.19,29.85,15,1,15,0.00
2013-12-10,7.9,-2.1,-9.4,3.0,-7.3,-15.0,89,78,76,30.49,29.90,8,0,10,0.00
2013-12-11,0.4,-7.1,-14.2,-4.7,-12.6,-19.8,79,76,75,30.62,30.30,13,1,13,0.00
2013-12-12,13.0,5.8,-1.0,7.7,0.6,-6.2,88,79,77,30.36,30.25,14,1,14,0.00
2013-12-13,4.5,-0.2,-1.5,-0.9,-5.9,-7.7,78,76,73,30.46,30.29,16,3,16,0.00
2013-12-14,2.6,-1.6,-9.7,-2.8,-6.9,-15.2,79,77,75,30.45,30.27,11,0,11,0.00
2013-12-15,4.3,-4.4,-9.0,-0.8,-10.2,-14.7,79,76,72,30.32,30.08,14,0,14,0.00
2013-12-16,31.6,18.5,4.3,27.9,14.1,-0.8,92,83,79,30.09,29.89,20,2,23,0.12
2013-12-17,29.7,15.8,6.5,25.7,10.4,1.1,85,79,75,30.16,29.92,21,2,21,0.00
2013-12-18,31.2,18.5,2.6,23.9,12.6,-3.7,89,77,74,30.09,29.63,23,2,23,0.02
2013-12-19,2.4,-2.3,-5.3,-3.7,-8.0,-11.2,78,76,74,30.33,30.09,22,5,22,0.00
2013-12-20,6.7,-1.3,-7.7,1.7,-6.6,-13.0,86,78,77,30.29,29.97,5,0,5,0.00
2013-12-21,2.3,-4.2,-8.4,-3.0,-9.6,-13.7,78,77,74,30.27,29.95,5,1,13,0.00
2013-12-22,-3.4,-6.5,-11.2,-9.3,-12.6,-18.4,76,74,68,30.57,30.24,11,1,13,0.00
2013-12-23,-7.6,-12.9,-17.5,-16.2,-20.0,-24.3,74,70,64,30.74,30.53,10,0,10,0.00
2013-12-24,16.9,2.0,-15.8,12.9,-3.5,-21.7,84,77,70,30.53,30.09,23,2,23,0.00
2013-12-25,23.9,17.0,12.8,20.3,12.3,7.8,92,82,77,30.24,30.04,14,0,14,0.00
2013-12-26,26.5,20.2,13.7,22.6,16.0,9.2,89,83,81,30.16,30.07,7,0,7,0.00
2013-12-27,39.1,32.0,24.2,32.2,27.3,20.0,92,83,76,30.09,29.85,19,2,19,0.10
2013-12-28,34.5,14.9,-12.6,30.1,10.3,-19.0,92,82,72,30.51,29.71,32,4,32,0.00
2013-12-29,-3.2,-9.5,-14.2,-12.3,-17.0,-20.8,72,69,61,30.58,30.31,16,0,17,0.00
2013-12-30,-1.6,-5.8,-11.1,-7.0,-11.7,-17.4,77,75,72,30.31,30.24,6,0,6,0.00
2013-12-31,-13.8,-16.0,-18.2,-19.2,-22.1,-24.6,76,73,69,30.60,30.34,11,1,11,0.00
2014-1-1,-5.8,-11.4,-16.8,-12.0,-17.5,-22.9,76,73,71,30.66,30.57,3,0,7,0.00
2014-1-2,-4.5,-13.3,-19.8,-11.6,-19.1,-25.5,76,74,69,30.66,30.24,15,0,15,0.00